• Join FlightAware (Why Join?)
  • Login
  • US Flag 
12:22PM EDT


 

Airport Tracker/Info


-or-


 

Live Flight TrackerFlight Track Log ✈ AWE3997 ✈ 11-May-2013 ✈ KRIC - KCLT

Flight Track Log - Related Links

Times and Time Zones

All times are in EDT time to prevent confusion due to time zone crossing. See the AWE3997 flight status page for this flight to view local times or setup timezone preferences in your user account.

Time Position Orientation Groundspeed Altitude Reporting Facility
EDT Latitude Longitude Course Direction KTS MPH feet Rate Location/Type
04:10PM 37.5403 -77.3886 284° West 189 217 2,800  Level Washington Center
04:11PM 37.5225 -77.4589 252° West 213 245 4,700 1,800 Climbing Washington Center
04:12PM 37.3968 -77.7585 254° West  Level FlightAware Approximate
04:12PM 37.4942 -77.5367 245° Southwest 231 266 6,400  Level Washington Center
04:13PM 37.3705 -77.8743 254° West  Level FlightAware Approximate
04:13PM 37.4617 -77.6194 244° Southwest 253 291 8,500  Level Washington Center
04:14PM 37.3500 -77.9911 270° West  Level FlightAware Approximate
04:14PM 37.4497 -77.7081 260° West 258 297 10,400  Level Washington Center
04:15PM 37.3237 -78.1055 253° West  Level FlightAware Approximate
04:15PM 37.4394 -77.8047 262° West 264 304 12,800  Level Washington Center
04:16PM 37.4272 -77.9011 261° West 277 319 14,900 1,980 Climbing Washington Center
04:17PM 37.4150 -77.9975 261° West 282 325 16,800 1,920 Climbing Washington Center
04:18PM 37.4025 -78.0964 261° West 287 330 18,700 1,560 Climbing Washington Center
04:19PM 37.3919 -78.2058 263° West 292 336 20,000 600 Climbing Washington Center
04:20PM 37.3769 -78.3125 260° West 298 343 20,000  Level Washington Center
04:21PM 37.3642 -78.4192 261° West 303 349 20,000 660 Level Washington Center
04:22PM 37.3511 -78.5258 261° West 314 361 21,400 1,200 Climbing Washington Center
04:23PM 37.3361 -78.6244 259° West 319 367 22,400 780 Climbing Washington Center
04:24PM 37.3228 -78.7336 261° West 319 367 23,000 240 Climbing Washington Center
04:25PM 37.3075 -78.8375 260° West 313 360 23,000  Level Washington Center
04:26PM 37.2942 -78.9439 261° West 313 360 23,000  Level Washington Center
04:27PM 37.2786 -79.0503 260° West 308 354 23,000 300 Level Washington Center
04:28PM 37.2653 -79.1542 261° West 308 354 23,600 480 Climbing Washington Center
04:29PM 37.2350 -79.2544 249° West 308 354 24,000 180 Climbing Washington Center
04:30PM 37.1622 -79.3161 214° Southwest 300 345 24,000  Level Washington Center
04:31PM 37.0808 -79.3797 212° Southwest 317 365 24,000  Level Washington Center
04:32PM 37.0058 -79.4411 213° Southwest 343 395 24,000  Level Washington Center
04:33PM 36.9267 -79.5075 214° Southwest 357 411 24,000  Level Washington Center
04:34PM 36.8431 -79.5758 213° Southwest 362 417 24,000  Level Washington Center
04:35PM 36.7572 -79.6467 213° Southwest 362 417 24,000  Level Washington Center
04:36PM 36.6647 -79.7219 213° Southwest 367 422 24,000  Level Washington Center
04:37PM 36.5833 -79.7900 214° Southwest 361 415 24,000 -540 Level Washington Center
04:38PM 36.4981 -79.8550 212° Southwest 364 419 23,000 -1,020 Descending Atlanta Center
04:39PM 36.4189 -79.9183 213° Southwest 358 412 22,000 -540 Descending Atlanta Center
04:40PM 36.3417 -79.9817 213° Southwest 358 412 22,000  Level Atlanta Center
04:41PM 36.2664 -80.0447 214° Southwest 346 398 22,000 -240 Level Atlanta Center
04:42PM 36.1975 -80.1022 214° Southwest 331 381 21,600 -1,020 Descending Atlanta Center
04:43PM 36.1244 -80.1675 216° Southwest 313 360 20,000 -1,500 Descending Atlanta Center
04:44PM 36.0575 -80.2244 215° Southwest 303 349 18,600 -1,560 Descending Atlanta Center
04:45PM 36.0289 -80.3133 248° West 285 328 16,900 -1,680 Descending Atlanta Center
04:46PM 36.0128 -80.4039 258° West 274 315 15,300 -1,560 Descending Atlanta Center
04:47PM 35.9983 -80.4814 257° West 268 308 13,800 -1,680 Descending Atlanta Center
04:48PM 35.9722 -80.5108 222° Southwest 274 315 13,100 -720 Descending Atlanta Center
04:48PM 35.9278 -80.4972 166° South 220 253 13,100  Level Atlanta Center
04:49PM 35.8494 -80.4547 156° South 267 307 13,100 -540 Level Atlanta Center
04:50PM 35.7706 -80.4683 188° South 279 321 12,100 -1,440 Descending Atlanta Center
04:51PM 35.7397 -80.4850 204° Southwest 283 326 11,300 -1,140 Descending Atlanta Center
04:51PM 35.6925 -80.5075 201° Southwest 279 321 11,000 -1,020 Descending Atlanta Center
04:52PM 35.6700 -80.5214 207° Southwest 269 310 10,300 -1,620 Descending Atlanta Center
04:52PM 35.6247 -80.5464 204° Southwest 279 321 9,400 -1,620 Descending Atlanta Center
04:53PM 35.6000 -80.5600 204° Southwest 269 310 8,700 -1,620 Descending Atlanta Center
04:53PM 35.5550 -80.5875 206° Southwest 274 315 7,800 -1,620 Descending Atlanta Center
04:54PM 35.5344 -80.5986 204° Southwest 268 308 7,100 -1,620 Descending Atlanta Center
04:54PM 35.4914 -80.6233 205° Southwest 274 315 6,200 -1,140 Descending Atlanta Center
04:55PM 35.4689 -80.6369 206° Southwest 258 297 6,000 -120 Descending Atlanta Center
04:55PM 35.4256 -80.6617 205° Southwest 268 308 6,100  Climbing Atlanta Center
04:56PM 35.4053 -80.6831 221° Southwest 251 289 6,000 -840 Descending Atlanta Center
04:56PM 35.3750 -80.7172 223° Southwest 255 293 5,300 -1,380 Descending Atlanta Center
04:57PM 35.3569 -80.7461 233° Southwest 249 287 4,600 -1,320 Descending Atlanta Center
04:57PM 35.3328 -80.7775 227° Southwest 240 276 4,000 -1,140 Descending Atlanta Center
04:58PM 35.3186 -80.7986 231° Southwest 200 230 3,500 -1,200 Descending Atlanta Center